sensor_id;sensor_type;location;lat;lon;timestamp;pressure;altitude;pressure_sealevel;temperature;humidity
62402;BME280;48440;51.224;22.506;2022-11-12T00:00:43;100565.06;;;9.32;85.19
62402;BME280;48440;51.224;22.506;2022-11-12T00:03:09;100556.94;;;9.32;85.23
62402;BME280;48440;51.224;22.506;2022-11-12T00:05:34;100569.22;;;9.34;85.04
62402;BME280;48440;51.224;22.506;2022-11-12T00:08:00;100572.75;;;9.35;84.90
62402;BME280;48440;51.224;22.506;2022-11-12T00:10:26;100570.06;;;9.35;84.78
62402;BME280;48440;51.224;22.506;2022-11-12T00:12:51;100570.88;;;9.35;84.99
62402;BME280;48440;51.224;22.506;2022-11-12T00:15:17;100566.28;;;9.36;85.02
62402;BME280;48440;51.224;22.506;2022-11-12T00:17:43;100567.34;;;9.35;85.16
62402;BME280;48440;51.224;22.506;2022-11-12T00:20:09;100567.78;;;9.32;85.38
62402;BME280;48440;51.224;22.506;2022-11-12T00:22:35;100569.88;;;9.30;85.87
62402;BME280;48440;51.224;22.506;2022-11-12T00:25:01;100578.00;;;9.30;85.78
62402;BME280;48440;51.224;22.506;2022-11-12T00:27:27;100585.50;;;9.28;85.75
62402;BME280;48440;51.224;22.506;2022-11-12T00:29:52;100585.06;;;9.31;85.67
62402;BME280;48440;51.224;22.506;2022-11-12T00:32:18;100583.19;;;9.31;85.60
62402;BME280;48440;51.224;22.506;2022-11-12T00:34:44;100588.22;;;9.28;85.57
62402;BME280;48440;51.224;22.506;2022-11-12T00:37:10;100575.72;;;9.27;85.67
62402;BME280;48440;51.224;22.506;2022-11-12T00:39:35;100572.78;;;9.28;85.97
62402;BME280;48440;51.224;22.506;2022-11-12T00:42:01;100574.88;;;9.26;85.87
62402;BME280;48440;51.224;22.506;2022-11-12T00:44:27;100580.28;;;9.26;86.15
62402;BME280;48440;51.224;22.506;2022-11-12T00:46:54;100570.28;;;9.27;85.94
62402;BME280;48440;51.224;22.506;2022-11-12T00:49:20;100576.75;;;9.26;86.14
62402;BME280;48440;51.224;22.506;2022-11-12T00:51:46;100575.94;;;9.25;85.91
62402;BME280;48440;51.224;22.506;2022-11-12T00:54:11;100585.50;;;9.28;86.10
62402;BME280;48440;51.224;22.506;2022-11-12T00:56:37;100581.34;;;9.25;86.09
62402;BME280;48440;51.224;22.506;2022-11-12T00:59:02;100587.38;;;9.27;86.21
62402;BME280;48440;51.224;22.506;2022-11-12T01:01:28;100585.94;;;9.25;86.38
62402;BME280;48440;51.224;22.506;2022-11-12T01:03:56;100578.41;;;9.27;86.22
62402;BME280;48440;51.224;22.506;2022-11-12T01:06:22;100578.41;;;9.27;86.37
62402;BME280;48440;51.224;22.506;2022-11-12T01:08:49;100591.13;;;9.26;86.25
62402;BME280;48440;51.224;22.506;2022-11-12T01:11:16;100575.09;;;9.25;86.19
62402;BME280;48440;51.224;22.506;2022-11-12T01:13:45;100581.34;;;9.25;86.24
62402;BME280;48440;51.224;22.506;2022-11-12T01:16:19;100577.81;;;9.25;86.07
62402;BME280;48440;51.224;22.506;2022-11-12T01:18:46;100579.69;;;9.24;86.59
62402;BME280;48440;51.224;22.506;2022-11-12T01:21:12;100581.34;;;9.25;86.45
62402;BME280;48440;51.224;22.506;2022-11-12T01:23:40;100578.00;;;9.23;86.47
62402;BME280;48440;51.224;22.506;2022-11-12T01:26:09;100576.34;;;9.22;86.65
62402;BME280;48440;51.224;22.506;2022-11-12T01:28:35;100583.66;;;9.22;86.60
62402;BME280;48440;51.224;22.506;2022-11-12T01:33:39;100583.44;;;9.23;86.53
62402;BME280;48440;51.224;22.506;2022-11-12T01:36:04;100579.69;;;9.24;86.66
62402;BME280;48440;51.224;22.506;2022-11-12T01:38:38;100584.25;;;9.24;86.34
62402;BME280;48440;51.224;22.506;2022-11-12T01:41:04;100583.22;;;9.25;86.31
62402;BME280;48440;51.224;22.506;2022-11-12T01:43:30;100585.94;;;9.25;86.52
62402;BME280;48440;51.224;22.506;2022-11-12T01:45:56;100589.47;;;9.25;86.28
62402;BME280;48440;51.224;22.506;2022-11-12T01:51:13;100587.59;;;9.26;86.30
62402;BME280;48440;51.224;22.506;2022-11-12T01:53:43;100586.75;;;9.25;86.36
62402;BME280;48440;51.224;22.506;2022-11-12T01:56:11;100593.00;;;9.26;86.33
62402;BME280;48440;51.224;22.506;2022-11-12T01:58:39;100593.63;;;9.28;86.20
62402;BME280;48440;51.224;22.506;2022-11-12T02:01:05;100593.84;;;9.26;86.30
62402;BME280;48440;51.224;22.506;2022-11-12T02:03:31;100600.91;;;9.27;86.25
62402;BME280;48440;51.224;22.506;2022-11-12T02:06:04;100597.59;;;9.25;86.46
62402;BME280;48440;51.224;22.506;2022-11-12T02:08:32;100606.56;;;9.26;86.42
62402;BME280;48440;51.224;22.506;2022-11-12T02:11:16;100601.34;;;9.24;86.54
62402;BME280;48440;51.224;22.506;2022-11-12T02:13:43;100606.75;;;9.24;86.27
62402;BME280;48440;51.224;22.506;2022-11-12T02:16:27;100597.81;;;9.24;86.59
62402;BME280;48440;51.224;22.506;2022-11-12T02:18:53;100595.94;;;9.24;86.28
62402;BME280;48440;51.224;22.506;2022-11-12T02:21:20;100605.72;;;9.25;86.00
62402;BME280;48440;51.224;22.506;2022-11-12T02:23:46;100597.38;;;9.27;86.18
62402;BME280;48440;51.224;22.506;2022-11-12T02:26:12;100604.47;;;9.28;86.45
62402;BME280;48440;51.224;22.506;2022-11-12T02:28:37;100605.28;;;9.28;85.87
62402;BME280;48440;51.224;22.506;2022-11-12T02:31:03;100601.53;;;9.29;85.76
62402;BME280;48440;51.224;22.506;2022-11-12T02:33:28;100615.09;;;9.29;86.02
62402;BME280;48440;51.224;22.506;2022-11-12T02:35:54;100604.25;;;9.29;86.14
62402;BME280;48440;51.224;22.506;2022-11-12T02:38:19;100609.66;;;9.29;86.16
62402;BME280;48440;51.224;22.506;2022-11-12T02:40:45;100606.13;;;9.29;86.22
62402;BME280;48440;51.224;22.506;2022-11-12T02:43:11;100608.84;;;9.29;85.91
62402;BME280;48440;51.224;22.506;2022-11-12T02:45:36;100623.22;;;9.29;85.84
62402;BME280;48440;51.224;22.506;2022-11-12T02:48:02;100620.50;;;9.29;86.22
62402;BME280;48440;51.224;22.506;2022-11-12T02:50:27;100624.03;;;9.30;85.91
62402;BME280;48440;51.224;22.506;2022-11-12T02:52:53;100621.34;;;9.30;86.21
62402;BME280;48440;51.224;22.506;2022-11-12T02:55:18;100618.63;;;9.30;86.17
62402;BME280;48440;51.224;22.506;2022-11-12T02:57:44;100624.25;;;9.28;85.83
62402;BME280;48440;51.224;22.506;2022-11-12T03:00:12;100626.13;;;9.28;86.31
62402;BME280;48440;51.224;22.506;2022-11-12T03:02:38;100624.69;;;9.25;86.36
62402;BME280;48440;51.224;22.506;2022-11-12T03:05:23;100615.50;;;9.26;86.21
62402;BME280;48440;51.224;22.506;2022-11-12T03:07:49;100627.19;;;9.27;86.41
62402;BME280;48440;51.224;22.506;2022-11-12T03:10:14;100624.47;;;9.27;86.11
62402;BME280;48440;51.224;22.506;2022-11-12T03:12:39;100627.19;;;9.27;86.03
62402;BME280;48440;51.224;22.506;2022-11-12T03:15:05;100629.06;;;9.26;85.90
62402;BME280;48440;51.224;22.506;2022-11-12T03:17:33;100623.63;;;9.26;85.86
62402;BME280;48440;51.224;22.506;2022-11-12T03:19:58;100621.75;;;9.27;85.69
62402;BME280;48440;51.224;22.506;2022-11-12T03:22:24;100623.44;;;9.28;85.82
62402;BME280;48440;51.224;22.506;2022-11-12T03:24:49;100620.72;;;9.28;85.97
62402;BME280;48440;51.224;22.506;2022-11-12T03:27:15;100616.34;;;9.27;86.02
62402;BME280;48440;51.224;22.506;2022-11-12T03:29:40;100623.44;;;9.28;86.05
62402;BME280;48440;51.224;22.506;2022-11-12T03:32:06;100617.19;;;9.27;85.98
62402;BME280;48440;51.224;22.506;2022-11-12T03:34:31;100622.59;;;9.27;85.84
62402;BME280;48440;51.224;22.506;2022-11-12T03:36:57;100617.19;;;9.27;85.60
62402;BME280;48440;51.224;22.506;2022-11-12T03:39:22;100611.53;;;9.29;85.80
62402;BME280;48440;51.224;22.506;2022-11-12T03:41:48;100611.53;;;9.29;85.90
62402;BME280;48440;51.224;22.506;2022-11-12T03:44:13;100614.25;;;9.29;85.60
62402;BME280;48440;51.224;22.506;2022-11-12T03:46:39;100615.09;;;9.29;85.48
62402;BME280;48440;51.224;22.506;2022-11-12T03:49:04;100608.84;;;9.29;85.84
62402;BME280;48440;51.224;22.506;2022-11-12T03:51:30;100613.41;;;9.28;85.61
62402;BME280;48440;51.224;22.506;2022-11-12T03:53:55;100615.09;;;9.29;85.69
62402;BME280;48440;51.224;22.506;2022-11-12T03:56:21;100611.53;;;9.29;85.34
62402;BME280;48440;51.224;22.506;2022-11-12T03:58:46;100617.78;;;9.29;85.76
62402;BME280;48440;51.224;22.506;2022-11-12T04:01:12;100614.25;;;9.29;85.45
62402;BME280;48440;51.224;22.506;2022-11-12T04:03:37;100624.25;;;9.28;85.52
62402;BME280;48440;51.224;22.506;2022-11-12T04:06:03;100628.00;;;9.27;85.30
62402;BME280;48440;51.224;22.506;2022-11-12T04:08:47;100629.88;;;9.27;85.48
62402;BME280;48440;51.224;22.506;2022-11-12T04:11:15;100626.13;;;9.28;85.68
62402;BME280;48440;51.224;22.506;2022-11-12T04:13:42;100622.59;;;9.27;85.44
62402;BME280;48440;51.224;22.506;2022-11-12T04:16:20;100619.06;;;9.27;85.80
62402;BME280;48440;51.224;22.506;2022-11-12T04:19:07;100621.75;;;9.27;85.92
62402;BME280;48440;51.224;22.506;2022-11-12T04:24:30;100623.03;;;9.24;85.89
62402;BME280;48440;51.224;22.506;2022-11-12T04:29:42;100626.34;;;9.26;86.05
62402;BME280;48440;51.224;22.506;2022-11-12T04:32:27;100629.06;;;9.26;85.86
62402;BME280;48440;51.224;22.506;2022-11-12T04:34:53;100627.19;;;9.27;85.95
62402;BME280;48440;51.224;22.506;2022-11-12T04:37:19;100630.72;;;9.27;86.04
62402;BME280;48440;51.224;22.506;2022-11-12T04:39:45;100624.47;;;9.27;85.96
62402;BME280;48440;51.224;22.506;2022-11-12T04:42:11;100622.59;;;9.27;85.95
62402;BME280;48440;51.224;22.506;2022-11-12T04:44:55;100628.00;;;9.27;86.11
62402;BME280;48440;51.224;22.506;2022-11-12T04:47:36;100620.31;;;9.24;86.28
62402;BME280;48440;51.224;22.506;2022-11-12T04:50:07;100622.19;;;9.24;86.19
62402;BME280;48440;51.224;22.506;2022-11-12T04:52:36;100620.31;;;9.24;86.31
62402;BME280;48440;51.224;22.506;2022-11-12T04:55:02;100626.56;;;9.25;85.99
62402;BME280;48440;51.224;22.506;2022-11-12T04:57:28;100615.09;;;9.23;86.21
62402;BME280;48440;51.224;22.506;2022-11-12T04:59:54;100621.97;;;9.25;86.52
62402;BME280;48440;51.224;22.506;2022-11-12T05:02:19;100626.56;;;9.25;86.09
62402;BME280;48440;51.224;22.506;2022-11-12T05:04:45;100620.31;;;9.24;86.16
62402;BME280;48440;51.224;22.506;2022-11-12T05:07:11;100617.38;;;9.26;86.42
62402;BME280;48440;51.224;22.506;2022-11-12T05:09:37;100622.81;;;9.26;86.52
62402;BME280;48440;51.224;22.506;2022-11-12T05:12:03;100622.19;;;9.24;86.44
62402;BME280;48440;51.224;22.506;2022-11-12T05:14:28;100614.88;;;9.24;86.14
62402;BME280;48440;51.224;22.506;2022-11-12T05:16:54;100616.75;;;9.24;86.44
62402;BME280;48440;51.224;22.506;2022-11-12T05:19:20;100630.09;;;9.25;86.22
62402;BME280;48440;51.224;22.506;2022-11-12T05:21:45;100617.81;;;9.23;86.23
62402;BME280;48440;51.224;22.506;2022-11-12T05:24:40;100618.66;;;9.23;86.59
62402;BME280;48440;51.224;22.506;2022-11-12T05:27:17;100622.81;;;9.26;86.32
62402;BME280;48440;51.224;22.506;2022-11-12T05:29:43;100626.56;;;9.25;86.24
62402;BME280;48440;51.224;22.506;2022-11-12T05:32:13;100628.44;;;9.24;86.63
62402;BME280;48440;51.224;22.506;2022-11-12T05:34:39;100628.44;;;9.24;86.26
62402;BME280;48440;51.224;22.506;2022-11-12T05:37:06;100632.19;;;9.23;85.99
62402;BME280;48440;51.224;22.506;2022-11-12T05:39:32;100631.13;;;9.24;86.29
62402;BME280;48440;51.224;22.506;2022-11-12T05:41:58;100630.09;;;9.25;86.42
62402;BME280;48440;51.224;22.506;2022-11-12T05:44:24;100627.19;;;9.27;86.39
62402;BME280;48440;51.224;22.506;2022-11-12T05:46:49;100628.00;;;9.27;85.75
62402;BME280;48440;51.224;22.506;2022-11-12T05:49:15;100628.22;;;9.26;85.98
62402;BME280;48440;51.224;22.506;2022-11-12T05:51:41;100626.56;;;9.25;86.00
62402;BME280;48440;51.224;22.506;2022-11-12T05:54:07;100626.56;;;9.25;86.35
62402;BME280;48440;51.224;22.506;2022-11-12T05:56:34;100631.75;;;9.26;86.09
62402;BME280;48440;51.224;22.506;2022-11-12T05:59:01;100633.44;;;9.27;85.64
62402;BME280;48440;51.224;22.506;2022-11-12T06:01:28;100639.28;;;9.24;86.27
62402;BME280;48440;51.224;22.506;2022-11-12T06:03:54;100635.72;;;9.24;86.25
62402;BME280;48440;51.224;22.506;2022-11-12T06:06:20;100634.47;;;9.26;86.35
62402;BME280;48440;51.224;22.506;2022-11-12T06:08:45;100645.31;;;9.26;85.96
62402;BME280;48440;51.224;22.506;2022-11-12T06:11:11;100638.84;;;9.27;nan
62402;BME280;48440;51.224;22.506;2022-11-12T06:13:36;100645.09;;;9.28;86.03
62402;BME280;48440;51.224;22.506;2022-11-12T06:16:02;100644.47;;;9.26;86.05
62402;BME280;48440;51.224;22.506;2022-11-12T06:18:27;100643.44;;;9.27;85.93
62402;BME280;48440;51.224;22.506;2022-11-12T06:20:53;100639.06;;;9.26;86.18
62402;BME280;48440;51.224;22.506;2022-11-12T06:23:37;100643.22;;;9.28;85.91
62402;BME280;48440;51.224;22.506;2022-11-12T06:26:03;100644.88;;;9.29;85.89
62402;BME280;48440;51.224;22.506;2022-11-12T06:28:29;100648.44;;;9.30;86.07
62402;BME280;48440;51.224;22.506;2022-11-12T06:30:54;100646.94;;;9.34;85.53
62402;BME280;48440;51.224;22.506;2022-11-12T06:33:20;100648.00;;;9.33;85.63
62402;BME280;48440;51.224;22.506;2022-11-12T06:35:46;100654.03;;;9.35;85.72
62402;BME280;48440;51.224;22.506;2022-11-12T06:38:12;100655.47;;;9.37;85.60
62402;BME280;48440;51.224;22.506;2022-11-12T06:40:37;100654.41;;;9.38;85.53
62402;BME280;48440;51.224;22.506;2022-11-12T06:43:03;100659.00;;;9.38;85.60
62402;BME280;48440;51.224;22.506;2022-11-12T06:45:28;100659.84;;;9.38;85.65
62402;BME280;48440;51.224;22.506;2022-11-12T06:47:57;100655.88;;;9.41;85.46
62402;BME280;48440;51.224;22.506;2022-11-12T06:50:23;100660.25;;;9.42;85.29
62402;BME280;48440;51.224;22.506;2022-11-12T06:52:49;100660.84;;;9.44;85.23
62402;BME280;48440;51.224;22.506;2022-11-12T06:55:14;100659.19;;;9.43;85.42
62402;BME280;48440;51.224;22.506;2022-11-12T06:57:40;100658.38;;;9.42;85.37
62402;BME280;48440;51.224;22.506;2022-11-12T07:00:06;100668.78;;;9.45;85.50
62402;BME280;48440;51.224;22.506;2022-11-12T07:02:31;100668.56;;;9.47;85.50
62402;BME280;48440;51.224;22.506;2022-11-12T07:04:57;100664.81;;;9.48;85.53
62402;BME280;48440;51.224;22.506;2022-11-12T07:07:22;100671.06;;;9.48;85.28
62402;BME280;48440;51.224;22.506;2022-11-12T07:09:48;100673.56;;;9.50;85.42
62402;BME280;48440;51.224;22.506;2022-11-12T07:12:13;100672.50;;;9.51;85.07
62402;BME280;48440;51.224;22.506;2022-11-12T07:14:39;100671.69;;;9.50;85.01
62402;BME280;48440;51.224;22.506;2022-11-12T07:17:05;100670.41;;;9.53;84.93
62402;BME280;48440;51.224;22.506;2022-11-12T07:19:30;100672.31;;;9.52;84.87
62402;BME280;48440;51.224;22.506;2022-11-12T07:21:55;100678.34;;;9.55;85.12
62402;BME280;48440;51.224;22.506;2022-11-12T07:24:21;100680.84;;;9.56;85.18
62402;BME280;48440;51.224;22.506;2022-11-12T07:26:46;100676.25;;;9.57;84.82
62402;BME280;48440;51.224;22.506;2022-11-12T07:29:12;100677.91;;;9.58;84.81
62402;BME280;48440;51.224;22.506;2022-11-12T07:31:37;100677.69;;;9.59;84.88
62402;BME280;48440;51.224;22.506;2022-11-12T07:34:03;100675.00;;;9.59;84.61
62402;BME280;48440;51.224;22.506;2022-11-12T07:36:28;100683.75;;;9.61;84.53
62402;BME280;48440;51.224;22.506;2022-11-12T07:38:54;100681.81;;;9.62;84.58
62402;BME280;48440;51.224;22.506;2022-11-12T07:41:22;100677.03;;;9.64;84.61
62402;BME280;48440;51.224;22.506;2022-11-12T07:43:50;100671.59;;;9.64;84.60
62402;BME280;48440;51.224;22.506;2022-11-12T07:46:17;100675.78;;;9.66;84.35
62402;BME280;48440;51.224;22.506;2022-11-12T07:48:44;100678.69;;;9.65;84.30
62402;BME280;48440;51.224;22.506;2022-11-12T07:51:16;100675.78;;;9.66;84.29
62402;BME280;48440;51.224;22.506;2022-11-12T07:53:43;100678.25;;;9.68;84.38
62402;BME280;48440;51.224;22.506;2022-11-12T07:56:14;100668.66;;;9.72;84.20
62402;BME280;48440;51.224;22.506;2022-11-12T07:58:40;100670.31;;;9.73;84.10
62402;BME280;48440;51.224;22.506;2022-11-12T08:03:45;100672.38;;;9.77;83.18
62402;BME280;48440;51.224;22.506;2022-11-12T08:06:10;100672.81;;;9.74;83.57
62402;BME280;48440;51.224;22.506;2022-11-12T08:08:36;100682.19;;;9.78;83.44
62402;BME280;48440;51.224;22.506;2022-11-12T08:11:01;100686.34;;;9.81;83.17
62402;BME280;48440;51.224;22.506;2022-11-12T08:13:26;100682.81;;;9.80;83.06
62402;BME280;48440;51.224;22.506;2022-11-12T08:15:56;100680.09;;;9.80;83.22
62402;BME280;48440;51.224;22.506;2022-11-12T08:18:21;100679.66;;;9.83;83.52
62402;BME280;48440;51.224;22.506;2022-11-12T08:20:47;100685.50;;;9.87;83.29
62402;BME280;48440;51.224;22.506;2022-11-12T08:23:12;100689.63;;;9.90;82.99
62402;BME280;48440;51.224;22.506;2022-11-12T08:25:38;100697.53;;;9.91;83.06
62402;BME280;48440;51.224;22.506;2022-11-12T08:28:03;100699.41;;;9.91;82.42
62402;BME280;48440;51.224;22.506;2022-11-12T08:30:29;100700.88;;;9.93;82.76
62402;BME280;48440;51.224;22.506;2022-11-12T08:33:00;100694.41;;;9.94;82.64
62402;BME280;48440;51.224;22.506;2022-11-12T08:35:27;100696.06;;;9.95;82.74
62402;BME280;48440;51.224;22.506;2022-11-12T08:38:00;100705.88;;;9.96;82.63
62402;BME280;48440;51.224;22.506;2022-11-12T08:40:28;100716.50;;;9.98;82.32
62402;BME280;48440;51.224;22.506;2022-11-12T08:42:58;100704.81;;;9.97;82.20
62402;BME280;48440;51.224;22.506;2022-11-12T08:45:25;100717.53;;;9.97;81.31
62402;BME280;48440;51.224;22.506;2022-11-12T08:47:51;100720.25;;;9.97;81.58
62402;BME280;48440;51.224;22.506;2022-11-12T08:50:17;100721.09;;;9.97;81.20
62402;BME280;48440;51.224;22.506;2022-11-12T08:52:42;100719.00;;;9.99;80.96
62402;BME280;48440;51.224;22.506;2022-11-12T08:55:08;100712.94;;;9.97;80.63
62402;BME280;48440;51.224;22.506;2022-11-12T08:57:41;100726.09;;;10.00;80.14
62402;BME280;48440;51.224;22.506;2022-11-12T09:00:08;100719.63;;;10.01;79.52
62402;BME280;48440;51.224;22.506;2022-11-12T09:02:34;100723.59;;;9.99;79.32
62402;BME280;48440;51.224;22.506;2022-11-12T09:05:00;100718.16;;;9.99;79.29
62402;BME280;48440;51.224;22.506;2022-11-12T09:07:26;100715.66;;;9.97;79.14
62402;BME280;48440;51.224;22.506;2022-11-12T09:09:51;100712.75;;;9.99;79.14
62402;BME280;48440;51.224;22.506;2022-11-12T09:12:17;100716.50;;;9.98;79.15
62402;BME280;48440;51.224;22.506;2022-11-12T09:14:44;100708.16;;;9.99;79.10
62402;BME280;48440;51.224;22.506;2022-11-12T09:17:10;100712.94;;;9.97;78.79
62402;BME280;48440;51.224;22.506;2022-11-12T09:19:36;100718.59;;;9.96;79.04
62402;BME280;48440;51.224;22.506;2022-11-12T09:22:02;100719.44;;;9.96;79.21
62402;BME280;48440;51.224;22.506;2022-11-12T09:24:27;100712.13;;;9.97;79.19
62402;BME280;48440;51.224;22.506;2022-11-12T09:26:53;100711.28;;;9.96;78.97
62402;BME280;48440;51.224;22.506;2022-11-12T09:29:19;100707.53;;;9.97;78.70
62402;BME280;48440;51.224;22.506;2022-11-12T09:31:45;100712.94;;;9.97;78.37
62402;BME280;48440;51.224;22.506;2022-11-12T09:34:10;100715.44;;;9.99;77.56
62402;BME280;48440;51.224;22.506;2022-11-12T09:36:36;100714.84;;;9.97;77.79
62402;BME280;48440;51.224;22.506;2022-11-12T09:39:02;100721.72;;;9.99;77.73
62402;BME280;48440;51.224;22.506;2022-11-12T09:41:37;100723.78;;;10.04;76.44
62402;BME280;48440;51.224;22.506;2022-11-12T09:44:28;100728.97;;;10.05;76.48
62402;BME280;48440;51.224;22.506;2022-11-12T09:47:46;100719.81;;;10.06;75.82
62402;BME280;48440;51.224;22.506;2022-11-12T09:52:38;100717.09;;;10.06;75.05
62402;BME280;48440;51.224;22.506;2022-11-12T09:55:17;100707.69;;;10.09;74.79
62402;BME280;48440;51.224;22.506;2022-11-12T09:57:45;100703.72;;;10.11;75.17
62402;BME280;48440;51.224;22.506;2022-11-12T10:00:18;100708.09;;;10.12;74.98
62402;BME280;48440;51.224;22.506;2022-11-12T10:03:37;100707.25;;;10.12;74.78
62402;BME280;48440;51.224;22.506;2022-11-12T10:05:41;100701.38;;;10.15;74.26
62402;BME280;48440;51.224;22.506;2022-11-12T10:08:38;100694.06;;;10.15;74.30
62402;BME280;48440;51.224;22.506;2022-11-12T10:22:30;100696.56;;;10.24;74.48
62402;BME280;48440;51.224;22.506;2022-11-12T10:25:14;100697.16;;;10.26;74.62
62402;BME280;48440;51.224;22.506;2022-11-12T10:27:40;100687.59;;;10.23;74.11
62402;BME280;48440;51.224;22.506;2022-11-12T10:30:18;100686.75;;;10.23;74.38
62402;BME280;48440;51.224;22.506;2022-11-12T10:32:45;100686.97;;;10.21;74.24
62402;BME280;48440;51.224;22.506;2022-11-12T10:35:18;100692.41;;;10.21;74.52
62402;BME280;48440;51.224;22.506;2022-11-12T10:37:54;100692.41;;;10.21;74.80
62402;BME280;48440;51.224;22.506;2022-11-12T10:40:37;100696.78;;;10.22;74.17
62402;BME280;48440;51.224;22.506;2022-11-12T10:45:47;100694.50;;;10.19;74.27
62402;BME280;48440;51.224;22.506;2022-11-12T10:50:49;100685.31;;;10.20;73.60
62402;BME280;48440;51.224;22.506;2022-11-12T10:53:37;100689.91;;;10.19;74.16
62402;BME280;48440;51.224;22.506;2022-11-12T10:56:19;100696.78;;;10.22;74.06
62402;BME280;48440;51.224;22.506;2022-11-12T11:01:41;100696.56;;;10.24;74.37
62402;BME280;48440;51.224;22.506;2022-11-12T11:09:26;100700.94;;;10.25;73.50
62402;BME280;48440;51.224;22.506;2022-11-12T11:11:52;100699.25;;;10.24;73.34
62402;BME280;48440;51.224;22.506;2022-11-12T11:16:52;100699.88;;;10.26;73.73
62402;BME280;48440;51.224;22.506;2022-11-12T11:19:18;100695.06;;;10.28;73.82
62402;BME280;48440;51.224;22.506;2022-11-12T11:24:33;100697.16;;;10.26;74.02
62402;BME280;48440;51.224;22.506;2022-11-12T11:40:34;100707.19;;;10.18;73.72
62402;BME280;48440;51.224;22.506;2022-11-12T11:48:23;100695.94;;;10.15;74.54
62402;BME280;48440;51.224;22.506;2022-11-12T11:56:23;100692.59;;;10.19;74.26
62402;BME280;48440;51.224;22.506;2022-11-12T12:02:00;100689.25;;;10.17;74.00
62402;BME280;48440;51.224;22.506;2022-11-12T12:07:24;100704.91;;;10.15;73.87
62402;BME280;48440;51.224;22.506;2022-11-12T12:25:59;100706.84;;;10.08;72.79
62402;BME280;48440;51.224;22.506;2022-11-12T12:28:36;100698.94;;;10.07;72.42
62402;BME280;48440;51.224;22.506;2022-11-12T12:31:12;100698.09;;;10.06;72.54
62402;BME280;48440;51.224;22.506;2022-11-12T12:33:55;100692.28;;;10.03;72.34
62402;BME280;48440;51.224;22.506;2022-11-12T12:36:35;100690.41;;;10.03;71.97
62402;BME280;48440;51.224;22.506;2022-11-12T12:40:20;100684.16;;;9.96;72.36
62402;BME280;48440;51.224;22.506;2022-11-12T12:42:36;100680.63;;;9.96;73.32
62402;BME280;48440;51.224;22.506;2022-11-12T12:45:40;100683.13;;;9.97;73.25
62402;BME280;48440;51.224;22.506;2022-11-12T12:48:29;100688.34;;;9.99;72.91
62402;BME280;48440;51.224;22.506;2022-11-12T12:50:56;100691.03;;;9.99;73.47
62402;BME280;48440;51.224;22.506;2022-11-12T12:55:55;100691.25;;;9.97;72.80
62402;BME280;48440;51.224;22.506;2022-11-12T12:58:30;100692.53;;;9.95;73.46
62402;BME280;48440;51.224;22.506;2022-11-12T13:01:06;100696.72;;;9.91;73.69
62402;BME280;48440;51.224;22.506;2022-11-12T13:06:14;100695.50;;;9.86;73.61
62402;BME280;48440;51.224;22.506;2022-11-12T13:45:28;100706.47;;;9.60;73.87
62402;BME280;48440;51.224;22.506;2022-11-12T13:47:54;100705.00;;;9.58;74.01
62402;BME280;48440;51.224;22.506;2022-11-12T13:50:21;100711.88;;;9.60;74.02
62402;BME280;48440;51.224;22.506;2022-11-12T13:52:48;100713.97;;;9.58;73.76
62402;BME280;48440;51.224;22.506;2022-11-12T13:55:20;100714.81;;;9.52;73.82
62402;BME280;48440;51.224;22.506;2022-11-12T13:57:50;100712.13;;;9.52;73.69
62402;BME280;48440;51.224;22.506;2022-11-12T14:02:44;100706.50;;;9.47;74.00
62402;BME280;48440;51.224;22.506;2022-11-12T14:05:13;100704.22;;;9.44;73.83
62402;BME280;48440;51.224;22.506;2022-11-12T14:07:59;100712.34;;;9.44;73.17
62402;BME280;48440;51.224;22.506;2022-11-12T14:13:25;100724.22;;;9.36;73.47
62402;BME280;48440;51.224;22.506;2022-11-12T14:16:19;100711.75;;;9.35;73.63
62402;BME280;48440;51.224;22.506;2022-11-12T14:22:12;100711.78;;;9.29;73.68
62402;BME280;48440;51.224;22.506;2022-11-12T14:24:39;100718.44;;;9.26;73.39
62402;BME280;48440;51.224;22.506;2022-11-12T14:27:41;100720.53;;;9.24;73.19
62402;BME280;48440;51.224;22.506;2022-11-12T14:30:14;100720.13;;;9.21;73.47
62402;BME280;48440;51.224;22.506;2022-11-12T14:32:43;100730.13;;;9.20;73.65
62402;BME280;48440;51.224;22.506;2022-11-12T14:35:30;100724.50;;;9.22;73.84
62402;BME280;48440;51.224;22.506;2022-11-12T14:38:01;100721.16;;;9.19;73.59
62402;BME280;48440;51.224;22.506;2022-11-12T14:40:31;100715.75;;;9.19;73.69
62402;BME280;48440;51.224;22.506;2022-11-12T14:42:57;100714.91;;;9.19;73.61
62402;BME280;48440;51.224;22.506;2022-11-12T14:45:22;100720.75;;;9.16;73.70
62402;BME280;48440;51.224;22.506;2022-11-12T14:47:50;100727.19;;;9.15;74.03
62402;BME280;48440;51.224;22.506;2022-11-12T14:53:07;100730.13;;;9.13;73.87
62402;BME280;48440;51.224;22.506;2022-11-12T14:55:36;100741.38;;;9.10;73.56
62402;BME280;48440;51.224;22.506;2022-11-12T14:58:05;100736.19;;;9.09;73.35
62402;BME280;48440;51.224;22.506;2022-11-12T15:00:37;100737.66;;;9.05;73.26
62402;BME280;48440;51.224;22.506;2022-11-12T15:03:03;100743.91;;;9.05;73.53
62402;BME280;48440;51.224;22.506;2022-11-12T15:05:29;100739.72;;;9.03;74.08
62402;BME280;48440;51.224;22.506;2022-11-12T15:08:02;100745.34;;;9.01;73.87
62402;BME280;48440;51.224;22.506;2022-11-12T15:10:41;100744.94;;;8.98;74.24
62402;BME280;48440;51.224;22.506;2022-11-12T15:13:17;100745.78;;;8.98;74.13
62402;BME280;48440;51.224;22.506;2022-11-12T15:16:04;100743.69;;;9.00;74.15
62402;BME280;48440;51.224;22.506;2022-11-12T15:18:33;100740.56;;;8.97;74.01
62402;BME280;48440;51.224;22.506;2022-11-12T15:23:48;100745.34;;;8.95;74.23
62402;BME280;48440;51.224;22.506;2022-11-12T15:29:18;100739.31;;;8.93;74.13